createdAt,value
2018-12-12T00:02:01.574Z,98431.98
2018-12-12T00:04:30.838Z,98430.83
2018-12-12T00:07:00.193Z,98426.88
2018-12-12T00:09:29.467Z,98421.16
2018-12-12T00:11:58.852Z,98418.70
2018-12-12T00:14:28.113Z,98411.80
2018-12-12T00:16:57.371Z,98414.41
2018-12-12T00:19:26.728Z,98410.16
2018-12-12T00:21:56.002Z,98410.59
2018-12-12T00:24:25.283Z,98412.91
2018-12-12T00:26:54.591Z,98411.45
2018-12-12T00:29:23.873Z,98402.58
2018-12-12T00:31:53.155Z,98405.70
2018-12-12T00:34:22.426Z,98404.05
2018-12-12T00:36:51.681Z,98405.86
2018-12-12T00:39:21.047Z,98399.67
2018-12-12T00:41:50.304Z,98403.45
2018-12-12T00:44:19.675Z,98407.05
2018-12-12T00:46:49.262Z,98403.74
2018-12-12T00:49:18.487Z,98405.39
2018-12-12T00:51:47.915Z,98404.24
2018-12-12T00:54:17.199Z,98405.23
2018-12-12T00:56:46.504Z,98397.19
2018-12-12T00:59:15.869Z,98402.77
2018-12-12T01:01:45.248Z,98404.05
2018-12-12T01:04:14.547Z,98404.03
2018-12-12T01:06:43.941Z,98404.24
2018-12-12T01:09:13.215Z,98403.42
2018-12-12T01:11:47.864Z,98408.83
2018-12-12T01:14:17.196Z,98406.36
2018-12-12T01:16:46.483Z,98407.98
2018-12-12T01:19:15.769Z,98414.88
2018-12-12T01:21:45.378Z,98411.58
2018-12-12T01:24:14.748Z,98422.58
2018-12-12T01:26:44.125Z,98418.63
2018-12-12T01:29:13.552Z,98416.67
2018-12-12T01:31:42.879Z,98415.87
2018-12-12T01:34:12.257Z,98417.83
2018-12-12T01:36:41.539Z,98415.67
2018-12-12T01:39:10.867Z,98413.01
2018-12-12T01:41:40.227Z,98410.73
2018-12-12T01:44:09.490Z,98409.09
2018-12-12T01:46:38.754Z,98399.12
2018-12-12T01:49:08.024Z,98401.23
2018-12-12T01:51:37.456Z,98401.23
2018-12-12T01:54:06.939Z,98400.05
2018-12-12T01:56:36.420Z,98399.80
2018-12-12T01:59:05.653Z,98398.47
2018-12-12T02:01:34.928Z,98407.97
2018-12-12T02:04:04.431Z,98404.34
2018-12-12T02:06:33.697Z,98404.48
2018-12-12T02:09:03.023Z,98397.20
2018-12-12T02:11:32.357Z,98392.72
2018-12-12T02:14:01.580Z,98389.80
2018-12-12T02:16:30.948Z,98388.58
2018-12-12T02:19:00.569Z,98390.78
2018-12-12T02:21:29.862Z,98391.64
2018-12-12T02:23:59.094Z,98393.09
2018-12-12T02:26:28.348Z,98394.25
2018-12-12T02:28:57.677Z,98399.30
2018-12-12T02:31:26.933Z,98405.34
2018-12-12T02:33:56.333Z,98407.69
2018-12-12T02:36:25.756Z,98404.91
2018-12-12T02:38:55.029Z,98410.32
2018-12-12T02:41:24.271Z,98404.72
2018-12-12T02:43:53.583Z,98411.06
2018-12-12T02:46:22.872Z,98411.60
2018-12-12T02:48:52.139Z,98410.73
2018-12-12T02:51:21.380Z,98410.08
2018-12-12T02:53:50.630Z,98408.39
2018-12-12T02:56:20.074Z,98403.15
2018-12-12T02:58:49.306Z,98410.41
2018-12-12T03:01:18.691Z,98406.17
2018-12-12T03:03:48.048Z,98409.08
2018-12-12T03:06:17.279Z,98415.09
2018-12-12T03:08:46.524Z,98413.13
2018-12-12T03:14:03.228Z,98411.77
2018-12-12T03:16:32.525Z,98408.87
2018-12-12T03:19:01.813Z,98411.14
2018-12-12T03:21:31.088Z,98408.84
2018-12-12T03:24:00.327Z,98411.62
2018-12-12T03:26:29.591Z,98413.03
2018-12-12T03:28:59.361Z,98413.22
2018-12-12T03:31:28.718Z,98407.78
2018-12-12T03:33:57.999Z,98406.63
2018-12-12T03:36:27.297Z,98405.12
2018-12-12T03:38:56.607Z,98405.79
2018-12-12T03:41:26.126Z,98396.62
2018-12-12T03:43:55.359Z,98392.59
2018-12-12T03:46:24.819Z,98394.03
2018-12-12T03:48:54.068Z,98385.45
2018-12-12T03:51:23.464Z,98387.31
2018-12-12T03:53:52.726Z,98381.30
2018-12-12T03:56:21.995Z,98387.97
2018-12-12T03:58:51.198Z,98384.91
2018-12-12T04:01:20.558Z,98384.55
2018-12-12T04:03:49.997Z,98388.18
2018-12-12T04:06:19.291Z,98389.19
2018-12-12T04:08:48.532Z,98389.80
2018-12-12T04:11:17.815Z,98397.64
2018-12-12T04:13:47.099Z,98398.59
2018-12-12T04:16:16.803Z,98397.23
2018-12-12T04:18:46.478Z,98394.16
2018-12-12T04:21:15.716Z,98400.20
2018-12-12T04:23:44.990Z,98391.53
2018-12-12T04:26:14.348Z,98397.77
2018-12-12T04:28:43.692Z,98391.84
2018-12-12T04:31:13.156Z,98396.73
2018-12-12T04:33:42.440Z,98404.73
2018-12-12T04:36:13.041Z,98403.57
2018-12-12T04:38:42.332Z,98402.20
2018-12-12T04:41:11.617Z,98405.70
2018-12-12T04:43:40.907Z,98401.08
2018-12-12T04:46:10.203Z,98405.95
2018-12-12T04:48:39.503Z,98402.70
2018-12-12T04:51:08.829Z,98407.29
2018-12-12T04:53:38.229Z,98404.41
2018-12-12T04:56:07.544Z,98399.87
2018-12-12T04:58:36.811Z,98405.61
2018-12-12T05:01:06.235Z,98400.52
2018-12-12T05:03:35.628Z,98401.16
2018-12-12T05:06:05.050Z,98413.81
2018-12-12T05:08:34.379Z,98409.38
2018-12-12T05:11:03.763Z,98413.78
2018-12-12T05:13:33.100Z,98416.83
2018-12-12T05:16:02.543Z,98414.70
2018-12-12T05:18:31.848Z,98413.20
2018-12-12T05:21:01.142Z,98423.83
2018-12-12T05:23:30.459Z,98421.06
2018-12-12T05:25:59.771Z,98420.88
2018-12-12T05:28:29.364Z,98421.45
2018-12-12T05:30:58.996Z,98397.78
2018-12-12T05:33:28.380Z,98417.16
2018-12-12T05:35:57.742Z,98417.30
2018-12-12T05:38:27.180Z,98413.55
2018-12-12T05:40:56.584Z,98413.58
2018-12-12T05:43:25.923Z,98414.59
2018-12-12T05:45:55.267Z,98413.17
2018-12-12T05:48:24.585Z,98409.75
2018-12-12T05:50:53.885Z,98414.67
2018-12-12T05:53:23.184Z,98416.72
2018-12-12T05:55:52.481Z,98414.89
2018-12-12T05:58:21.799Z,98415.08
2018-12-12T06:00:51.189Z,98410.48
2018-12-12T06:03:20.455Z,98413.62
2018-12-12T06:05:49.756Z,98409.34
2018-12-12T06:08:19.091Z,98415.23
2018-12-12T06:10:48.387Z,98414.72
2018-12-12T06:13:17.751Z,98413.44
2018-12-12T06:15:47.049Z,98420.70
2018-12-12T06:18:16.425Z,98412.80
2018-12-12T06:20:45.760Z,98414.81
2018-12-12T06:23:15.159Z,98407.79
2018-12-12T06:25:44.483Z,98413.01
2018-12-12T06:28:13.804Z,98411.53
2018-12-12T06:30:43.091Z,98412.23
2018-12-12T06:33:12.397Z,98411.33
2018-12-12T06:35:41.658Z,98407.03
2018-12-12T06:38:10.679Z,98410.81
2018-12-12T06:40:39.963Z,98409.98
2018-12-12T06:43:09.287Z,98407.50
2018-12-12T06:45:38.700Z,98406.84
2018-12-12T06:48:07.970Z,98414.59
2018-12-12T06:50:37.291Z,98410.18
2018-12-12T06:53:06.566Z,98408.48
2018-12-12T06:55:38.679Z,98413.78
2018-12-12T06:58:07.957Z,98413.57
2018-12-12T07:00:37.252Z,98414.86
2018-12-12T07:03:06.517Z,98412.09
2018-12-12T07:05:35.760Z,98415.26
2018-12-12T07:08:05.042Z,98416.41
2018-12-12T07:10:34.337Z,98425.23
2018-12-12T07:13:03.567Z,98420.12
2018-12-12T07:15:32.826Z,98420.14
2018-12-12T07:18:02.332Z,98421.28
2018-12-12T07:20:31.635Z,98417.34
2018-12-12T07:23:00.931Z,98417.67
2018-12-12T07:25:30.212Z,98419.53
2018-12-12T07:27:59.525Z,98420.03
2018-12-12T07:30:28.877Z,98426.23
2018-12-12T07:32:58.166Z,98431.34
2018-12-12T07:35:27.552Z,98433.76
2018-12-12T07:37:56.941Z,98429.60
2018-12-12T07:40:26.336Z,98432.00
2018-12-12T07:42:55.671Z,98405.70
2018-12-12T07:45:25.289Z,98430.83
2018-12-12T07:47:54.600Z,98425.08
2018-12-12T07:50:23.887Z,98425.59
2018-12-12T07:52:53.163Z,98426.41
2018-12-12T07:55:22.697Z,98427.94
2018-12-12T07:57:52.103Z,98429.78
2018-12-12T08:00:21.400Z,98430.59
2018-12-12T08:02:50.700Z,98433.91
2018-12-12T08:05:20.003Z,98432.36
2018-12-12T08:07:49.267Z,98435.31
2018-12-12T08:10:18.635Z,98437.55
2018-12-12T08:12:47.950Z,98430.83
2018-12-12T08:15:17.215Z,98435.59
2018-12-12T08:17:46.556Z,98433.43
2018-12-12T08:20:15.879Z,98436.33
2018-12-12T08:22:45.196Z,98430.23
2018-12-12T08:25:14.452Z,98432.85
2018-12-12T08:27:43.779Z,98432.06
2018-12-12T08:30:13.578Z,98431.08
2018-12-12T08:32:43.039Z,98435.81
2018-12-12T08:35:12.415Z,98430.47
2018-12-12T08:37:41.779Z,98437.49
2018-12-12T08:40:11.197Z,98430.47
2018-12-12T08:42:40.503Z,98434.50
2018-12-12T08:45:09.959Z,98430.76
2018-12-12T08:47:39.346Z,98435.42
2018-12-12T08:50:09.477Z,98435.91
2018-12-12T08:52:38.717Z,98440.58
2018-12-12T08:55:08.246Z,98444.32
2018-12-12T08:57:37.533Z,98443.37
2018-12-12T09:00:07.760Z,98443.69
2018-12-12T09:02:37.097Z,98443.49
2018-12-12T09:05:06.796Z,98446.87
2018-12-12T09:07:36.116Z,98449.19
2018-12-12T09:10:06.471Z,98445.31
2018-12-12T09:12:35.999Z,98455.66
2018-12-12T09:15:09.019Z,98457.60
2018-12-12T09:17:38.409Z,98459.57
2018-12-12T09:20:08.333Z,98457.05
2018-12-12T09:22:37.730Z,98456.30
2018-12-12T09:25:07.443Z,98458.47
2018-12-12T09:27:36.768Z,98463.66
2018-12-12T09:30:06.652Z,98456.34
2018-12-12T09:32:36.008Z,98452.50
2018-12-12T09:35:05.616Z,98451.81
2018-12-12T09:37:34.923Z,98449.52
2018-12-12T09:40:04.690Z,98453.99
2018-12-12T09:42:34.088Z,98453.00
2018-12-12T09:45:04.906Z,98451.28
2018-12-12T09:47:34.552Z,98454.23
2018-12-12T09:50:04.117Z,98449.78
2018-12-12T09:52:33.467Z,98451.45
2018-12-12T09:55:02.830Z,98446.17
2018-12-12T09:57:32.059Z,98450.33
2018-12-12T10:00:01.384Z,98446.21
2018-12-12T10:02:30.600Z,98445.90
2018-12-12T10:04:59.819Z,98449.05
2018-12-12T10:07:29.165Z,98441.28
2018-12-12T10:09:58.441Z,98442.03
2018-12-12T10:12:27.793Z,98443.19
2018-12-12T10:14:57.107Z,98434.80
2018-12-12T10:17:26.473Z,98439.45
2018-12-12T10:19:55.756Z,98442.45
2018-12-12T10:22:25.023Z,98435.70
2018-12-12T10:24:54.401Z,98431.95
2018-12-12T10:27:23.688Z,98435.89
2018-12-12T10:29:52.970Z,98427.50
2018-12-12T10:32:22.253Z,98430.18
2018-12-12T10:34:51.521Z,98431.39
2018-12-12T10:37:20.820Z,98431.31
2018-12-12T10:39:50.096Z,98432.95
2018-12-12T10:42:19.449Z,98427.45
2018-12-12T10:44:48.824Z,98423.87
2018-12-12T10:47:18.117Z,98421.00
2018-12-12T10:49:47.440Z,98421.00
2018-12-12T10:52:16.672Z,98419.28
2018-12-12T10:54:46.120Z,98428.48
2018-12-12T10:57:15.379Z,98419.52
2018-12-12T10:59:44.748Z,98422.75
2018-12-12T11:02:19.193Z,98422.47
2018-12-12T11:04:48.468Z,98413.45
2018-12-12T11:07:17.743Z,98411.58
2018-12-12T11:09:47.052Z,98413.05
2018-12-12T11:12:16.420Z,98410.95
2018-12-12T11:14:45.691Z,98410.14
2018-12-12T11:17:16.115Z,98408.00
2018-12-12T11:19:45.529Z,98399.46
2018-12-12T11:22:14.904Z,98403.59
2018-12-12T11:24:45.160Z,98396.11
2018-12-12T11:27:14.667Z,98395.89
2018-12-12T11:29:44.036Z,98396.55
2018-12-12T11:32:13.423Z,98387.39
2018-12-12T11:34:42.737Z,98389.31
2018-12-12T11:37:12.035Z,98383.67
2018-12-12T11:39:41.433Z,98380.97
2018-12-12T11:42:10.793Z,98376.33
2018-12-12T11:44:40.061Z,98371.19
2018-12-12T11:47:09.327Z,98371.97
2018-12-12T11:49:38.678Z,98368.45
2018-12-12T11:52:08.044Z,98366.70
2018-12-12T11:54:37.533Z,98363.43
2018-12-12T11:59:49.055Z,98356.51
2018-12-12T12:02:18.358Z,98345.99
2018-12-12T12:04:47.684Z,98352.66
2018-12-12T12:07:18.414Z,98348.80
2018-12-12T12:09:47.887Z,98349.69
2018-12-12T12:12:17.259Z,98346.33
2018-12-12T12:14:46.628Z,98342.94
2018-12-12T12:17:15.907Z,98339.66
2018-12-12T12:19:45.696Z,98344.10
2018-12-12T12:22:15.022Z,98342.02
2018-12-12T12:24:44.350Z,98340.75
2018-12-12T12:27:13.653Z,98342.79
2018-12-12T12:29:42.996Z,98342.51
2018-12-12T12:32:12.436Z,98340.48
2018-12-12T12:34:41.862Z,98335.47
2018-12-12T12:37:11.206Z,98338.89
2018-12-12T12:39:40.602Z,98331.65
2018-12-12T12:42:09.907Z,98330.23
2018-12-12T12:44:39.216Z,98329.39
2018-12-12T12:47:08.612Z,98329.52
2018-12-12T12:49:38.001Z,98330.16
2018-12-12T12:52:07.420Z,98323.47
2018-12-12T12:54:36.742Z,98326.92
2018-12-12T12:57:06.240Z,98321.23
2018-12-12T12:59:35.576Z,98321.63
2018-12-12T13:02:04.914Z,98314.50
2018-12-12T13:04:34.237Z,98315.65
2018-12-12T13:07:03.593Z,98317.52
2018-12-12T13:09:32.914Z,98310.77
2018-12-12T13:12:02.275Z,98312.85
2018-12-12T13:14:31.947Z,98309.34
2018-12-12T13:17:01.302Z,98301.13
2018-12-12T13:19:30.656Z,98308.96
2018-12-12T13:22:00.066Z,98308.09
2018-12-12T13:24:29.354Z,98306.68
2018-12-12T13:26:58.613Z,98305.22
2018-12-12T13:29:27.826Z,98296.40
2018-12-12T13:31:57.145Z,98301.01
2018-12-12T13:34:26.532Z,98299.31
2018-12-12T13:36:55.883Z,98296.74
2018-12-12T13:39:25.189Z,98297.41
2018-12-12T13:41:54.508Z,98302.12
2018-12-12T13:44:23.776Z,98290.78
2018-12-12T13:46:53.165Z,98289.41
2018-12-12T13:49:22.419Z,98291.10
2018-12-12T13:51:51.783Z,98285.84
2018-12-12T13:54:21.204Z,98284.26
2018-12-12T13:56:50.540Z,98286.19
2018-12-12T13:59:19.815Z,98285.28
2018-12-12T14:01:49.157Z,98285.47
2018-12-12T14:04:22.713Z,98285.28
2018-12-12T14:06:49.688Z,98284.41
2018-12-12T14:09:18.978Z,98280.02
2018-12-12T14:11:48.313Z,98280.02
2018-12-12T14:14:17.612Z,98276.70
2018-12-12T14:16:46.941Z,98279.82
2018-12-12T14:19:16.244Z,98280.20
2018-12-12T14:21:45.530Z,98283.21
2018-12-12T14:24:14.796Z,98279.06
2018-12-12T14:26:44.097Z,98279.44
2018-12-12T14:29:13.420Z,98282.89
2018-12-12T14:31:42.676Z,98271.49
2018-12-12T14:34:11.998Z,98272.16
2018-12-12T14:36:41.302Z,98263.39
2018-12-12T14:39:10.715Z,98267.88
2018-12-12T14:41:40.005Z,98271.10
2018-12-12T14:44:09.421Z,98266.28
2018-12-12T14:46:38.712Z,98272.00
2018-12-12T14:49:08.425Z,98274.14
2018-12-12T14:51:37.806Z,98277.46
2018-12-12T14:54:07.186Z,98267.88
2018-12-12T14:56:36.485Z,98274.49
2018-12-12T14:59:05.889Z,98270.50
2018-12-12T15:01:35.227Z,98262.91
2018-12-12T15:04:04.649Z,98266.55
2018-12-12T15:06:34.114Z,98263.22
2018-12-12T15:09:05.555Z,98264.87
2018-12-12T15:11:34.832Z,98262.41
2018-12-12T15:14:04.252Z,98260.38
2018-12-12T15:16:33.644Z,98258.58
2018-12-12T15:19:02.946Z,98260.33
2018-12-12T15:21:32.251Z,98256.05
2018-12-12T15:24:01.490Z,98259.87
2018-12-12T15:26:30.787Z,98258.30
2018-12-12T15:29:00.083Z,98263.71
2018-12-12T15:31:29.376Z,98263.55
2018-12-12T15:33:58.660Z,98260.14
2018-12-12T15:36:27.969Z,98255.11
2018-12-12T15:38:57.219Z,98259.12
2018-12-12T15:41:26.712Z,98261.08
2018-12-12T15:43:56.104Z,98258.95
2018-12-12T15:46:25.450Z,98261.30
2018-12-12T15:48:54.721Z,98261.03
2018-12-12T15:51:24.049Z,98264.42
2018-12-12T15:53:53.320Z,98259.07
2018-12-12T15:56:22.664Z,98256.25
2018-12-12T15:58:51.953Z,98256.61
2018-12-12T16:01:21.443Z,98260.86
2018-12-12T16:03:50.679Z,98260.44
2018-12-12T16:06:20.064Z,98252.38
2018-12-12T16:08:49.427Z,98254.72
2018-12-12T16:11:18.707Z,98260.88
2018-12-12T16:13:48.010Z,98258.38
2018-12-12T16:16:17.346Z,98252.73
2018-12-12T16:18:46.630Z,98254.48
2018-12-12T16:21:15.945Z,98255.84
2018-12-12T16:23:45.271Z,98251.41
2018-12-12T16:26:14.697Z,98251.53
2018-12-12T16:28:43.993Z,98251.69
2018-12-12T16:31:13.391Z,98251.53
2018-12-12T16:33:42.720Z,98247.64
2018-12-12T16:36:12.060Z,98249.28
2018-12-12T16:38:41.457Z,98245.46
2018-12-12T16:41:10.765Z,98241.23
2018-12-12T16:43:40.054Z,98247.37
2018-12-12T16:46:09.392Z,98244.03
2018-12-12T16:48:38.747Z,98245.83
2018-12-12T16:51:08.191Z,98247.84
2018-12-12T16:53:37.518Z,98246.33
2018-12-12T16:56:06.841Z,98243.58
2018-12-12T16:58:36.449Z,98240.91
2018-12-12T17:01:05.932Z,98236.09
2018-12-12T17:03:35.983Z,98236.81
2018-12-12T17:06:06.772Z,98239.59
2018-12-12T17:08:39.234Z,98240.86
2018-12-12T17:11:12.803Z,98234.95
2018-12-12T17:13:42.123Z,98234.66
2018-12-12T17:16:11.498Z,98229.85
2018-12-12T17:18:40.900Z,98229.20
2018-12-12T17:21:10.167Z,98231.66
2018-12-12T17:23:39.399Z,98229.30
2018-12-12T17:26:08.697Z,98230.07
2018-12-12T17:28:37.983Z,98230.24
2018-12-12T17:31:07.262Z,98230.52
2018-12-12T17:33:36.571Z,98227.94
2018-12-12T17:36:07.967Z,98227.98
2018-12-12T17:38:37.300Z,98223.55
2018-12-12T17:41:18.466Z,98224.05
2018-12-12T17:43:47.727Z,98225.52
2018-12-12T17:46:17.028Z,98227.77
2018-12-12T17:48:46.307Z,98222.36
2018-12-12T17:51:15.695Z,98226.34
2018-12-12T17:53:44.971Z,98220.80
2018-12-12T17:56:14.535Z,98221.47
2018-12-12T17:58:43.836Z,98221.75
2018-12-12T18:01:13.344Z,98226.45
2018-12-12T18:03:44.783Z,98220.80
2018-12-12T18:06:14.134Z,98212.88
2018-12-12T18:08:43.420Z,98223.73
2018-12-12T18:11:12.985Z,98216.66
2018-12-12T18:13:42.432Z,98213.42
2018-12-12T18:16:11.890Z,98211.88
2018-12-12T18:18:41.207Z,98212.33
2018-12-12T18:21:10.492Z,98216.31
2018-12-12T18:23:39.915Z,98220.20
2018-12-12T18:26:09.236Z,98213.02
2018-12-12T18:28:38.656Z,98221.06
2018-12-12T18:31:08.016Z,98213.90
2018-12-12T18:33:37.356Z,98217.84
2018-12-12T18:36:06.796Z,98208.97
2018-12-12T18:38:36.141Z,98213.90
2018-12-12T18:41:05.732Z,98216.08
2018-12-12T18:43:35.093Z,98208.53
2018-12-12T18:46:04.405Z,98209.22
2018-12-12T18:48:33.735Z,98209.34
2018-12-12T18:51:03.076Z,98212.74
2018-12-12T18:53:32.484Z,98209.92
2018-12-12T18:56:01.773Z,98207.21
2018-12-12T18:58:31.149Z,98209.52
2018-12-12T19:01:00.532Z,98216.62
2018-12-12T19:03:30.016Z,98219.77
2018-12-12T19:05:59.433Z,98212.68
2018-12-12T19:08:28.807Z,98208.25
2018-12-12T19:10:58.204Z,98215.35
2018-12-12T19:13:27.648Z,98217.31
2018-12-12T19:15:57.167Z,98212.48
2018-12-12T19:18:26.513Z,98217.36
2018-12-12T19:21:00.101Z,98216.26
2018-12-12T19:23:28.134Z,98214.77
2018-12-12T19:25:57.428Z,98215.64
2018-12-12T19:28:26.788Z,98213.83
2018-12-12T19:30:56.086Z,98210.14
2018-12-12T19:33:25.459Z,98211.83
2018-12-12T19:35:54.721Z,98206.17
2018-12-12T19:38:24.088Z,98204.03
2018-12-12T19:40:53.631Z,98208.19
2018-12-12T19:43:22.921Z,98207.03
2018-12-12T19:45:52.318Z,98207.40
2018-12-12T19:48:21.624Z,98200.92
2018-12-12T19:50:50.893Z,98203.38
2018-12-12T19:53:20.232Z,98199.11
2018-12-12T19:55:49.610Z,98198.82
2018-12-12T19:58:18.993Z,98195.78
2018-12-12T20:00:48.303Z,98201.16
2018-12-12T20:03:18.800Z,98196.80
2018-12-12T20:05:48.131Z,98197.36
2018-12-12T20:08:17.625Z,98197.42
2018-12-12T20:10:46.923Z,98193.75
2018-12-12T20:13:16.381Z,98190.84
2018-12-12T20:15:46.666Z,98187.39
2018-12-12T20:18:16.235Z,98186.50
2018-12-12T20:20:45.633Z,98184.78
2018-12-12T20:23:14.925Z,98180.06
2018-12-12T20:25:44.367Z,98185.95
2018-12-12T20:28:13.733Z,98185.19
2018-12-12T20:30:43.014Z,98181.59
2018-12-12T20:33:12.348Z,98176.75
2018-12-12T20:35:47.861Z,98172.33
2018-12-12T20:38:13.434Z,98180.11
2018-12-12T20:40:42.773Z,98174.27
2018-12-12T20:43:12.075Z,98175.88
2018-12-12T20:45:41.708Z,98172.13
2018-12-12T20:48:11.099Z,98177.02
2018-12-12T20:50:40.449Z,98177.00
2018-12-12T20:53:09.816Z,98176.52
2018-12-12T20:55:39.155Z,98172.87
2018-12-12T20:58:08.552Z,98168.52
2018-12-12T21:00:37.885Z,98171.59
2018-12-12T21:03:07.301Z,98168.92
2018-12-12T21:05:36.729Z,98164.42
2018-12-12T21:08:06.170Z,98163.77
2018-12-12T21:10:35.672Z,98158.95
2018-12-12T21:13:05.180Z,98163.38
2018-12-12T21:15:34.594Z,98153.55
2018-12-12T21:18:04.067Z,98155.27
2018-12-12T21:20:33.379Z,98146.16
2018-12-12T21:23:02.691Z,98147.09
2018-12-12T21:25:32.748Z,98144.47
2018-12-12T21:28:02.048Z,98143.38
2018-12-12T21:30:32.247Z,98147.11
2018-12-12T21:33:01.562Z,98144.47
2018-12-12T21:35:30.873Z,98137.94
2018-12-12T21:38:00.270Z,98145.40
2018-12-12T21:40:29.615Z,98143.87
2018-12-12T21:42:58.920Z,98138.95
2018-12-12T21:45:28.308Z,98142.69
2018-12-12T21:47:57.604Z,98144.80
2018-12-12T21:50:27.044Z,98137.62
2018-12-12T21:52:56.314Z,98135.65
2018-12-12T21:55:25.657Z,98130.08
2018-12-12T21:57:54.923Z,98129.65
2018-12-12T22:00:24.577Z,98126.73
2018-12-12T22:02:53.891Z,98123.81
2018-12-12T22:05:23.209Z,98134.13
2018-12-12T22:07:52.255Z,98127.72
2018-12-12T22:10:21.620Z,98125.29
2018-12-12T22:12:50.978Z,98127.74
2018-12-12T22:15:20.400Z,98123.84
2018-12-12T22:17:49.782Z,98126.73
2018-12-12T22:20:19.106Z,98122.53
2018-12-12T22:22:48.396Z,98116.45
2018-12-12T22:25:17.705Z,98114.84
2018-12-12T22:27:46.994Z,98111.92
2018-12-12T22:30:16.356Z,98108.53
2018-12-12T22:32:45.661Z,98110.39
2018-12-12T22:35:15.112Z,98109.89
2018-12-12T22:37:44.364Z,98110.61
2018-12-12T22:40:13.648Z,98111.30
2018-12-12T22:42:42.951Z,98117.54
2018-12-12T22:45:12.305Z,98112.67
2018-12-12T22:47:41.584Z,98122.20
2018-12-12T22:50:10.986Z,98113.67
2018-12-12T22:52:40.274Z,98113.41
2018-12-12T22:55:09.639Z,98113.08
2018-12-12T22:57:38.897Z,98112.77
2018-12-12T23:00:10.484Z,98114.09
2018-12-12T23:02:39.788Z,98114.11
2018-12-12T23:05:09.250Z,98108.75
2018-12-12T23:07:38.559Z,98105.09
2018-12-12T23:10:08.202Z,98105.41
2018-12-12T23:12:37.512Z,98102.65
2018-12-12T23:15:07.193Z,98110.06
2018-12-12T23:17:36.512Z,98100.12
2018-12-12T23:20:06.817Z,98091.48
2018-12-12T23:22:36.183Z,98093.16
2018-12-12T23:25:06.004Z,98101.48
2018-12-12T23:27:35.300Z,98099.38
2018-12-12T23:30:06.376Z,98105.44
2018-12-12T23:32:35.775Z,98099.73
2018-12-12T23:35:05.341Z,98099.91
2018-12-12T23:37:34.655Z,98098.62
2018-12-12T23:40:04.218Z,98094.22
2018-12-12T23:42:33.494Z,98098.62
2018-12-12T23:45:03.006Z,98095.04
2018-12-12T23:47:32.303Z,98094.20
2018-12-12T23:50:01.622Z,98095.17
2018-12-12T23:52:30.896Z,98084.03
2018-12-12T23:55:00.196Z,98088.63
2018-12-12T23:57:29.519Z,98080.09
2018-12-12T23:59:58.821Z,98078.80
